Time;durP1;ratioP1;P1;durP2;ratioP2;P2;SDS_P1;SDS_P2;PMS_P1;PMS_P2;Temp;Humidity;BMP_temperature;BMP_pressure;BME280_temperature;BME280_humidity;BME280_pressure;Samples;Min_cycle;Max_cycle;Signal;HPM_P1;HPM_P2
2021/10/31 00:01:12;;;;;;;0.40;0.40;;;;;;;4.97;100.00;100717.34;5111018;28;20055;-70
2021/10/31 00:03:39;;;;;;;0.40;0.40;;;;;;;4.91;100.00;100703.44;5094891;27;20097;-70
2021/10/31 00:06:05;;;;;;;0.40;0.40;;;;;;;4.94;100.00;100701.44;5131556;27;20574;-69
2021/10/31 00:08:31;;;;;;;0.40;0.40;;;;;;;4.94;100.00;100693.41;5112820;27;20051;-69
2021/10/31 00:10:57;;;;;;;0.40;0.40;;;;;;;4.97;100.00;100695.91;5112901;27;20594;-68
2021/10/31 00:13:24;;;;;;;0.40;0.40;;;;;;;4.97;100.00;100703.94;5112925;27;20205;-69
2021/10/31 00:15:50;;;;;;;0.40;0.40;;;;;;;4.93;100.00;100705.06;5110592;28;20426;-73
2021/10/31 00:18:17;;;;;;;0.40;0.40;;;;;;;4.94;100.00;100701.44;5097080;28;20209;-74
2021/10/31 00:20:42;;;;;;;0.40;0.40;;;;;;;4.92;100.00;100697.97;5062594;28;20051;-70
2021/10/31 00:23:09;;;;;;;0.40;0.40;;;;;;;4.90;100.00;100690.97;5114486;28;20047;-68
2021/10/31 00:25:35;;;;;;;0.40;0.40;;;;;;;4.87;100.00;100693.84;5127178;27;20595;-70
2021/10/31 00:28:00;;;;;;;0.40;0.40;;;;;;;4.88;100.00;100701.78;5112861;27;20047;-71
2021/10/31 00:30:27;;;;;;;0.40;0.40;;;;;;;4.88;100.00;100696.44;5095421;27;20059;-71
2021/10/31 00:32:52;;;;;;;0.40;0.40;;;;;;;4.85;100.00;100696.59;5078994;27;20074;-71
2021/10/31 00:35:18;;;;;;;0.40;0.40;;;;;;;4.80;100.00;100687.97;5109590;27;20531;-69
2021/10/31 00:37:44;;;;;;;0.40;0.40;;;;;;;4.84;99.89;100689.53;5112449;27;20200;-70
2021/10/31 00:40:12;;;;;;;0.40;0.40;;;;;;;4.83;100.00;100694.03;5131409;27;20486;-72
2021/10/31 00:42:38;;;;;;;0.40;0.40;;;;;;;4.79;99.92;100688.91;5130554;27;20431;-71
2021/10/31 00:45:05;;;;;;;0.40;0.40;;;;;;;4.76;99.57;100681.09;5094276;27;20204;-71
2021/10/31 00:47:31;;;;;;;0.40;0.40;;;;;;;4.75;99.92;100680.22;5130262;27;20526;-71
2021/10/31 00:49:57;;;;;;;0.40;0.40;;;;;;;4.73;99.64;100684.78;5111848;27;20054;-71
2021/10/31 00:52:23;;;;;;;0.40;0.40;;;;;;;4.68;99.47;100680.63;5130637;27;20043;-70
2021/10/31 00:54:49;;;;;;;0.40;0.40;;;;;;;4.66;99.59;100669.16;5090840;28;20545;-71
2021/10/31 00:57:15;;;;;;;0.50;0.50;;;;;;;4.68;99.21;100667.25;5075016;28;20052;-71
2021/10/31 00:59:41;;;;;;;0.40;0.40;;;;;;;4.64;99.08;100668.38;5110086;28;20148;-72
2021/10/31 01:02:11;;;;;;;0.40;0.40;;;;;;;4.65;99.32;100667.44;5109627;28;20044;-70
2021/10/31 01:04:40;;;;;;;0.40;0.40;;;;;;;4.62;98.87;100672.97;5108503;28;20388;-70
2021/10/31 01:07:14;;;;;;;0.40;0.40;;;;;;;4.65;98.98;100662.09;5110920;28;20142;-70
2021/10/31 01:10:17;;;;;;;0.40;0.40;;;;;;;4.62;98.65;100667.63;5110732;28;20047;-70
2021/10/31 01:13:08;;;;;;;0.40;0.40;;;;;;;4.62;98.25;100667.63;5110025;28;20119;-69
2021/10/31 01:15:56;;;;;;;0.40;0.40;;;;;;;4.57;98.55;100660.72;5092365;28;20066;-70
2021/10/31 01:18:59;;;;;;;0.40;0.40;;;;;;;4.53;98.64;100659.16;5075634;28;20138;-69
2021/10/31 01:21:46;;;;;;;0.40;0.40;;;;;;;4.54;98.32;100650.19;5110612;28;20043;-69
2021/10/31 01:24:30;;;;;;;0.40;0.40;;;;;;;4.49;98.13;100657.59;5110651;28;20401;-70
2021/10/31 01:27:15;;;;;;;0.40;0.40;;;;;;;4.48;98.41;100650.50;5092612;28;20056;-70
2021/10/31 01:30:08;;;;;;;0.40;0.40;;;;;;;4.41;98.34;100641.13;5092783;28;20169;-70
2021/10/31 01:32:55;;;;;;;0.40;0.40;;;;;;;4.42;98.26;100650.84;5097164;28;20052;-70
2021/10/31 01:35:42;;;;;;;0.50;0.50;;;;;;;4.30;98.67;100640.84;5092257;28;20055;-68
2021/10/31 01:38:20;;;;;;;0.50;0.50;;;;;;;4.33;98.80;100640.69;5110232;28;20059;-68
2021/10/31 01:41:09;;;;;;;0.50;0.50;;;;;;;4.24;98.43;100636.72;5091468;28;20381;-70
2021/10/31 01:43:40;;;;;;;0.40;0.40;;;;;;;4.29;98.66;100639.16;5119705;28;20073;-70
2021/10/31 01:46:38;;;;;;;0.50;0.50;;;;;;;4.25;98.62;100638.44;5129751;28;20404;-69
2021/10/31 01:49:13;;;;;;;0.40;0.40;;;;;;;4.26;98.50;100636.63;5095007;28;20063;-71
2021/10/31 01:51:44;;;;;;;0.40;0.40;;;;;;;4.22;98.40;100637.75;5094956;28;20136;-69
2021/10/31 01:54:19;;;;;;;0.40;0.40;;;;;;;4.20;98.64;100637.81;5111146;28;20051;-69
2021/10/31 01:56:50;;;;;;;0.40;0.40;;;;;;;4.21;98.43;100630.69;5111850;28;20051;-71
2021/10/31 01:59:28;;;;;;;0.40;0.40;;;;;;;4.21;98.57;100628.00;5111551;28;20067;-69
2021/10/31 02:01:56;;;;;;;0.40;0.40;;;;;;;4.15;98.27;100625.69;5111824;28;20092;-69
2021/10/31 02:04:24;;;;;;;0.40;0.40;;;;;;;4.11;98.60;100625.84;5111456;28;20125;-69
2021/10/31 02:06:51;;;;;;;0.40;0.40;;;;;;;4.10;98.42;100628.63;5111692;28;20424;-74
2021/10/31 02:09:21;;;;;;;0.40;0.40;;;;;;;4.07;98.55;100635.00;5111653;28;20193;-70
2021/10/31 02:11:48;;;;;;;0.40;0.40;;;;;;;4.06;98.66;100621.72;5111895;28;20055;-70
2021/10/31 02:14:14;;;;;;;0.40;0.40;;;;;;;4.04;98.59;100627.13;5094382;28;20055;-68
2021/10/31 02:16:41;;;;;;;0.40;0.40;;;;;;;4.05;98.71;100631.53;5130026;28;20111;-71
2021/10/31 02:19:09;;;;;;;0.40;0.40;;;;;;;4.10;98.69;100629.47;5112116;28;20114;-69
2021/10/31 02:21:36;;;;;;;0.40;0.40;;;;;;;4.09;98.62;100627.72;5114130;27;20061;-71
2021/10/31 02:24:04;;;;;;;0.40;0.40;;;;;;;4.08;98.29;100625.16;5135023;27;20053;-68
2021/10/31 02:26:30;;;;;;;0.40;0.40;;;;;;;4.08;98.25;100633.19;5115732;27;20051;-70
2021/10/31 02:29:01;;;;;;;0.40;0.40;;;;;;;4.08;98.13;100631.34;5110775;28;20485;-70
2021/10/31 02:31:28;;;;;;;0.40;0.40;;;;;;;4.06;98.43;100627.94;5095846;28;20050;-70
2021/10/31 02:33:57;;;;;;;0.40;0.40;;;;;;;4.06;98.15;100627.06;5097321;28;20055;-69
2021/10/31 02:36:23;;;;;;;0.40;0.40;;;;;;;4.03;98.26;100622.75;5114641;28;20085;-73
2021/10/31 02:38:49;;;;;;;0.40;0.40;;;;;;;4.05;98.26;100619.97;5081655;27;20233;-70
2021/10/31 02:41:15;;;;;;;0.50;0.50;;;;;;;4.03;98.17;100627.22;5117755;27;20126;-71
2021/10/31 02:43:41;;;;;;;0.40;0.40;;;;;;;4.04;98.33;100616.44;5136385;27;20124;-71
2021/10/31 02:46:07;;;;;;;0.40;0.40;;;;;;;4.02;98.25;100621.03;5134417;27;20434;-69
2021/10/31 02:48:33;;;;;;;0.50;0.50;;;;;;;4.02;98.43;100621.03;5114493;27;20554;-70
2021/10/31 02:51:14;;;;;;;0.50;0.50;;;;;;;4.01;98.56;100619.28;5113257;27;20503;-69
2021/10/31 02:53:56;;;;;;;0.40;0.40;;;;;;;3.95;98.38;100619.63;5114685;27;20055;-70
2021/10/31 02:56:28;;;;;;;0.40;0.40;;;;;;;3.91;98.49;100615.38;5098625;27;20051;-69
2021/10/31 02:59:01;;;;;;;0.50;0.50;;;;;;;3.85;98.50;100607.72;5098928;27;20093;-69
2021/10/31 03:01:28;;;;;;;0.50;0.50;;;;;;;3.84;98.54;100612.22;5094510;28;20488;-69
2021/10/31 03:03:55;;;;;;;0.40;0.40;;;;;;;3.80;98.53;100604.41;5093795;28;20128;-69
2021/10/31 03:06:22;;;;;;;0.40;0.40;;;;;;;3.80;98.74;100610.66;5093980;28;20138;-70
2021/10/31 03:08:48;;;;;;;0.40;0.40;;;;;;;3.78;99.08;100609.84;5093536;28;20082;-70
2021/10/31 03:11:14;;;;;;;0.40;0.40;;;;;;;3.76;98.73;100613.56;5126853;27;20058;-68
2021/10/31 03:13:41;;;;;;;0.40;0.40;;;;;;;3.77;99.10;100623.31;5114402;27;20047;-70
2021/10/31 03:16:08;;;;;;;0.40;0.40;;;;;;;3.76;98.89;100618.91;5114063;27;20450;-69
2021/10/31 03:18:34;;;;;;;0.45;0.45;;;;;;;3.76;98.87;100613.56;5114019;27;20070;-69
2021/10/31 03:21:01;;;;;;;0.50;0.50;;;;;;;3.72;98.85;100607.50;5110803;27;20051;-75
2021/10/31 03:23:27;;;;;;;0.50;0.50;;;;;;;3.71;99.06;100604.94;5106677;28;20142;-69
2021/10/31 03:25:53;;;;;;;0.50;0.50;;;;;;;3.71;98.96;100603.13;5091276;27;20055;-69
2021/10/31 03:28:19;;;;;;;0.40;0.40;;;;;;;3.72;99.12;100603.97;5131842;27;20039;-73
2021/10/31 03:30:45;;;;;;;0.40;0.40;;;;;;;3.73;98.92;100597.66;5113994;27;20075;-69
2021/10/31 03:33:12;;;;;;;0.40;0.40;;;;;;;3.70;99.07;100593.38;5116284;27;20076;-69
2021/10/31 03:35:38;;;;;;;0.40;0.40;;;;;;;3.67;99.50;100592.69;5132886;27;20104;-71
2021/10/31 03:38:04;;;;;;;0.40;0.40;;;;;;;3.68;99.26;100591.72;5113491;27;20120;-69
2021/10/31 03:40:30;;;;;;;0.40;0.40;;;;;;;3.65;99.41;100586.53;5095943;27;20512;-69
2021/10/31 03:42:56;;;;;;;0.50;0.50;;;;;;;3.65;99.42;100600.78;5113431;27;20051;-69
2021/10/31 03:45:22;;;;;;;0.50;0.50;;;;;;;3.58;99.74;100584.22;5113517;27;20051;-70
2021/10/31 03:47:48;;;;;;;0.50;0.50;;;;;;;3.55;99.50;100589.72;5113385;27;20055;-71
2021/10/31 03:50:21;;;;;;;0.50;0.50;;;;;;;3.53;99.53;100588.94;5112758;27;20186;-70
2021/10/31 03:52:48;;;;;;;0.50;0.50;;;;;;;3.50;99.62;100586.44;5096994;27;20368;-71
2021/10/31 03:55:15;;;;;;;0.50;0.50;;;;;;;3.48;99.78;100591.00;5096914;28;20079;-70
2021/10/31 03:57:41;;;;;;;0.60;0.60;;;;;;;3.44;99.60;100583.22;5114737;28;20082;-73
2021/10/31 04:00:09;;;;;;;0.60;0.60;;;;;;;3.43;99.77;100584.19;5114825;28;20544;-70
2021/10/31 04:02:36;;;;;;;0.50;0.50;;;;;;;3.40;99.74;100585.22;5096237;28;20047;-69
2021/10/31 04:05:03;;;;;;;0.60;0.60;;;;;;;3.39;99.54;100584.34;5092710;28;20539;-69
2021/10/31 04:07:29;;;;;;;0.50;0.50;;;;;;;3.36;99.64;100572.94;5092610;28;20047;-71
2021/10/31 04:09:55;;;;;;;0.50;0.50;;;;;;;3.36;99.81;100579.19;5075522;28;20085;-69
2021/10/31 04:12:20;;;;;;;0.50;0.50;;;;;;;3.34;99.46;100569.50;5110648;28;20641;-71
2021/10/31 04:14:46;;;;;;;0.50;0.50;;;;;;;3.32;99.10;100571.38;5110948;28;20044;-70
2021/10/31 04:17:12;;;;;;;0.52;0.52;;;;;;;3.33;99.04;100575.81;5110817;28;20047;-70
2021/10/31 04:19:38;;;;;;;0.50;0.50;;;;;;;3.34;99.01;100574.84;5094594;27;20075;-74
2021/10/31 04:22:04;;;;;;;0.50;0.50;;;;;;;3.33;98.91;100573.13;5088233;28;20135;-73
2021/10/31 04:24:30;;;;;;;0.57;0.57;;;;;;;3.29;98.85;100572.44;5102194;27;20649;-70
2021/10/31 04:27:00;;;;;;;0.50;0.50;;;;;;;3.29;98.88;100576.88;5096705;27;20510;-71
2021/10/31 04:29:26;;;;;;;0.50;0.50;;;;;;;3.30;98.41;100573.28;5115607;27;20047;-76
2021/10/31 04:31:51;;;;;;;0.60;0.60;;;;;;;3.27;98.80;100568.13;5097129;27;20075;-79
2021/10/31 04:34:17;;;;;;;0.55;0.55;;;;;;;3.23;98.60;100567.41;5096023;27;20075;-73
2021/10/31 04:36:44;;;;;;;0.50;0.50;;;;;;;3.22;98.50;100564.81;5130323;27;20524;-73
2021/10/31 04:39:10;;;;;;;0.50;0.50;;;;;;;3.22;98.24;100570.16;5093011;28;20056;-74
2021/10/31 04:41:38;;;;;;;0.50;0.50;;;;;;;3.19;98.19;100570.34;5111287;28;20051;-74
2021/10/31 04:44:04;;;;;;;0.50;0.50;;;;;;;3.18;98.12;100568.59;5093240;28;20105;-70
2021/10/31 04:46:30;;;;;;;0.50;0.50;;;;;;;3.15;97.87;100566.97;5091909;28;20063;-72
2021/10/31 04:48:57;;;;;;;0.50;0.50;;;;;;;3.13;97.92;100567.03;5103066;27;20078;-73
2021/10/31 04:51:22;;;;;;;0.50;0.50;;;;;;;3.17;97.88;100566.88;5101801;28;20063;-71
2021/10/31 04:53:48;;;;;;;0.50;0.50;;;;;;;3.18;97.51;100563.25;5084829;27;20051;-69
2021/10/31 04:56:14;;;;;;;0.60;0.60;;;;;;;3.22;97.50;100576.38;5098104;27;20058;-79
2021/10/31 04:58:40;;;;;;;0.50;0.50;;;;;;;3.21;97.42;100560.41;5084073;28;20055;-70
2021/10/31 05:01:06;;;;;;;0.60;0.60;;;;;;;3.24;97.00;100570.94;5099724;28;20077;-71
2021/10/31 05:03:32;;;;;;;0.50;0.50;;;;;;;3.28;96.79;100568.00;5118393;28;20057;-69
2021/10/31 05:05:59;;;;;;;0.60;0.60;;;;;;;3.33;96.51;100568.66;5099186;28;20078;-74
2021/10/31 05:08:26;;;;;;;0.60;0.60;;;;;;;3.40;96.19;100563.84;5115797;28;20139;-78
2021/10/31 05:10:53;;;;;;;0.60;0.60;;;;;;;3.55;95.19;100559.47;5093070;28;20051;-75
2021/10/31 05:13:19;;;;;;;0.70;0.70;;;;;;;3.72;94.41;100553.16;5104686;28;20133;-75
2021/10/31 05:15:45;;;;;;;0.70;0.70;;;;;;;3.99;93.26;100566.81;5104321;28;20039;-72
2021/10/31 05:18:11;;;;;;;0.88;0.88;;;;;;;4.38;91.41;100558.28;5090702;28;20065;-74
2021/10/31 05:20:38;;;;;;;0.80;0.80;;;;;;;4.72;89.50;100564.38;5126527;28;20068;-71
2021/10/31 05:23:04;;;;;;;0.80;0.80;;;;;;;5.26;87.52;100557.44;5128786;28;20055;-70
2021/10/31 05:25:29;;;;;;;0.90;0.90;;;;;;;5.18;85.62;100551.69;5106023;28;20050;-76
2021/10/31 05:27:57;;;;;;;0.80;0.80;;;;;;;5.50;84.12;100560.41;5111154;28;20086;-76
2021/10/31 05:30:23;;;;;;;0.80;0.80;;;;;;;5.75;82.99;100558.88;5105867;28;20057;-75
2021/10/31 05:32:51;;;;;;;0.80;0.80;;;;;;;5.99;81.58;100546.56;5104182;28;20050;-74
2021/10/31 05:35:17;;;;;;;0.90;0.90;;;;;;;6.37;80.34;100553.06;5124380;28;20532;-75
2021/10/31 05:37:47;;;;;;;0.90;0.90;;;;;;;6.47;78.37;100546.09;5126056;28;20039;-77
2021/10/31 05:40:16;;;;;;;0.90;0.90;;;;;;;6.98;76.41;100552.47;5110372;28;20082;-74
2021/10/31 05:42:42;;;;;;;0.90;0.90;;;;;;;7.40;74.38;100552.25;5113871;28;20093;-74
2021/10/31 05:45:09;;;;;;;0.90;0.90;;;;;;;7.87;72.14;100556.91;5126092;28;20043;-74
2021/10/31 05:47:37;;;;;;;0.90;0.90;;;;;;;7.85;71.54;100541.81;5108886;28;20067;-73
2021/10/31 05:50:05;;;;;;;0.90;0.90;;;;;;;7.96;71.04;100553.53;5126745;28;20043;-75
2021/10/31 05:52:31;;;;;;;0.90;0.90;;;;;;;8.80;67.96;100557.16;5128168;28;20055;-74
2021/10/31 05:54:59;;;;;;;0.90;0.90;;;;;;;9.65;66.46;100549.56;5094385;28;20047;-76
2021/10/31 05:57:27;;;;;;;0.90;0.90;;;;;;;9.64;63.93;100553.22;5085799;27;20086;-76
2021/10/31 05:59:53;;;;;;;0.90;0.90;;;;;;;9.65;63.67;100549.56;5135399;27;20052;-71
2021/10/31 06:02:19;;;;;;;0.90;0.90;;;;;;;10.49;61.59;100549.06;5133518;27;20458;-73
2021/10/31 06:04:46;;;;;;;0.90;0.90;;;;;;;9.93;62.08;100538.38;5082421;27;20043;-74
2021/10/31 06:07:12;;;;;;;0.80;0.80;;;;;;;9.72;63.66;100538.25;5114607;27;20466;-76
2021/10/31 06:09:39;;;;;;;0.95;0.95;;;;;;;9.55;63.10;100531.53;5111150;27;20054;-72
2021/10/31 06:12:06;;;;;;;1.00;1.00;;;;;;;10.13;61.95;100532.19;5104012;27;20058;-72
2021/10/31 06:14:33;;;;;;;0.90;0.90;;;;;;;10.53;59.82;100539.69;5107001;27;20047;-74
2021/10/31 06:16:59;;;;;;;1.00;1.00;;;;;;;10.65;59.69;100527.84;5095440;27;20098;-79
2021/10/31 06:19:25;;;;;;;1.00;1.00;;;;;;;11.01;58.85;100534.69;5111686;27;20051;-71
2021/10/31 06:21:50;;;;;;;1.00;1.00;;;;;;;10.83;58.92;100530.84;5093512;27;20071;-78
2021/10/31 06:24:16;;;;;;;1.00;1.00;;;;;;;10.90;58.75;100542.84;5110746;27;20705;-72
2021/10/31 06:26:42;;;;;;;1.00;1.00;;;;;;;11.24;57.42;100539.94;5092928;27;20770;-74
2021/10/31 06:29:08;;;;;;;0.90;0.90;;;;;;;11.32;57.30;100543.69;5082838;27;20503;-75
2021/10/31 06:31:34;;;;;;;1.00;1.00;;;;;;;10.44;58.35;100535.06;5110984;27;20055;-76
2021/10/31 06:34:00;;;;;;;1.00;1.00;;;;;;;11.11;57.52;100523.88;5104659;27;20043;-73
2021/10/31 06:36:26;;;;;;;1.00;1.00;;;;;;;11.45;55.56;100539.91;5086256;27;20478;-72
2021/10/31 06:38:52;;;;;;;1.00;1.00;;;;;;;12.15;54.30;100533.63;5096253;27;20199;-76
2021/10/31 06:41:18;;;;;;;1.02;1.02;;;;;;;11.19;56.71;100543.06;5085938;27;20089;-73
2021/10/31 06:43:44;;;;;;;1.10;1.10;;;;;;;11.28;56.73;100542.22;5079015;27;20062;-74
2021/10/31 06:46:11;;;;;;;1.00;1.00;;;;;;;10.94;57.51;100538.03;5111090;27;20084;-72
2021/10/31 06:48:37;;;;;;;1.10;1.10;;;;;;;11.02;57.67;100557.19;5083409;27;20484;-77
2021/10/31 06:51:03;;;;;;;1.10;1.10;;;;;;;12.63;53.49;100535.53;5081628;27;20074;-68
2021/10/31 06:53:29;;;;;;;1.10;1.10;;;;;;;11.78;54.91;100538.78;5127303;27;20055;-78
2021/10/31 06:55:54;;;;;;;1.10;1.10;;;;;;;11.30;55.79;100559.22;5097703;27;20062;-66
2021/10/31 06:58:20;;;;;;;1.10;1.10;;;;;;;11.82;55.03;100551.91;5129503;27;20039;-67
2021/10/31 07:00:46;;;;;;;1.10;1.10;;;;;;;12.21;54.18;100552.06;5128775;27;20082;-67
2021/10/31 07:03:12;;;;;;;1.10;1.10;;;;;;;12.57;53.06;100563.22;5087526;27;20119;-72
2021/10/31 07:05:38;;;;;;;1.10;1.10;;;;;;;12.88;52.20;100560.38;5096893;27;20199;-71
2021/10/31 07:08:04;;;;;;;1.10;1.10;;;;;;;13.11;51.05;100567.19;5077051;27;20153;-69
2021/10/31 07:10:30;;;;;;;1.10;1.10;;;;;;;12.95;51.51;100565.06;5111851;27;20055;-72
2021/10/31 07:12:56;;;;;;;1.10;1.10;;;;;;;13.17;50.80;100555.75;5109567;27;20040;-72
2021/10/31 07:15:22;;;;;;;1.10;1.10;;;;;;;13.25;50.16;100558.63;5106362;27;20522;-74
2021/10/31 07:17:49;;;;;;;1.00;1.00;;;;;;;13.11;50.16;100563.63;5109258;27;20393;-72
2021/10/31 07:20:17;;;;;;;1.08;1.08;;;;;;;13.15;50.56;100560.47;5108023;27;20074;-72
2021/10/31 07:22:43;;;;;;;1.05;1.05;;;;;;;13.04;50.41;100571.50;5088104;27;20130;-69
2021/10/31 07:25:10;;;;;;;0.70;0.70;;;;;;;14.06;47.87;100563.47;5080767;27;20618;-71
2021/10/31 07:27:36;;;;;;;1.20;1.20;;;;;;;15.71;45.09;100578.44;5086775;28;20485;-74
2021/10/31 07:30:02;;;;;;;0.40;0.40;;;;;;;14.50;46.09;100574.53;5047195;28;20052;-72
2021/10/31 07:32:30;;;;;;;0.40;0.40;;;;;;;13.07;49.66;100560.34;5052200;28;20147;-73
2021/10/31 07:34:55;;;;;;;0.30;0.30;;;;;;;10.92;54.60;100577.88;5042388;28;20455;-72
2021/10/31 07:37:22;;;;;;;0.30;0.30;;;;;;;9.03;61.38;100573.41;5066907;28;20109;-72
2021/10/31 07:39:49;;;;;;;0.30;0.30;;;;;;;8.44;63.94;100577.81;5053321;28;20052;-70
2021/10/31 07:42:16;;;;;;;0.40;0.40;;;;;;;8.42;64.80;100571.72;5084690;28;20044;-74
2021/10/31 07:44:44;;;;;;;0.40;0.40;;;;;;;9.00;62.83;100584.44;5033480;28;20067;-70
2021/10/31 07:47:10;;;;;;;0.50;0.50;;;;;;;8.10;65.71;100573.19;5084997;28;20080;-71
2021/10/31 07:49:36;;;;;;;0.40;0.40;;;;;;;7.52;68.49;100586.34;5069047;28;20063;-71
2021/10/31 07:52:02;;;;;;;0.40;0.40;;;;;;;7.47;68.97;100591.19;5054005;28;20048;-71
2021/10/31 07:54:28;;;;;;;0.50;0.50;;;;;;;7.02;70.09;100571.94;5053649;28;20052;-72
2021/10/31 07:56:56;;;;;;;0.40;0.40;;;;;;;6.73;72.02;100584.69;5037312;28;20128;-74
2021/10/31 07:59:21;;;;;;;0.50;0.50;;;;;;;6.61;73.48;100585.47;5036961;28;20143;-69
2021/10/31 08:01:48;;;;;;;0.70;0.70;;;;;;;7.05;71.86;100573.53;5067670;28;20063;-69
2021/10/31 08:04:14;;;;;;;0.40;0.40;;;;;;;7.53;70.47;100581.81;5051218;28;20048;-68
2021/10/31 08:06:40;;;;;;;0.50;0.50;;;;;;;7.42;70.29;100587.94;5070808;28;20048;-67
2021/10/31 08:09:06;;;;;;;0.50;0.50;;;;;;;7.30;70.90;100570.84;5033069;28;20048;-71
2021/10/31 08:11:32;;;;;;;0.40;0.40;;;;;;;6.96;72.03;100575.03;5057801;28;20078;-69
2021/10/31 08:13:58;;;;;;;0.50;0.50;;;;;;;6.93;72.45;100572.56;5063200;28;20070;-69
2021/10/31 08:16:25;;;;;;;0.40;0.40;;;;;;;6.80;73.07;100575.22;5048623;28;20114;-70
2021/10/31 08:18:51;;;;;;;0.50;0.50;;;;;;;7.04;72.04;100571.81;5067206;28;20040;-69
2021/10/31 08:21:17;;;;;;;0.50;0.50;;;;;;;6.55;74.28;100573.34;5069259;28;20218;-69
2021/10/31 08:23:43;;;;;;;0.50;0.50;;;;;;;6.52;74.65;100571.72;5047597;28;20054;-69
2021/10/31 08:26:09;;;;;;;0.60;0.60;;;;;;;6.72;73.76;100572.19;5049411;28;20104;-69
2021/10/31 08:28:38;;;;;;;0.40;0.40;;;;;;;6.30;74.66;100559.81;5067368;28;20121;-68
2021/10/31 08:31:04;;;;;;;0.40;0.40;;;;;;;6.21;75.72;100577.38;5039717;28;20059;-74
2021/10/31 08:33:33;;;;;;;0.50;0.50;;;;;;;6.50;74.45;100584.38;5055287;28;20048;-70
2021/10/31 08:35:59;;;;;;;0.50;0.50;;;;;;;6.22;75.05;100573.75;5035376;28;20148;-72
2021/10/31 08:38:25;;;;;;;0.52;0.52;;;;;;;6.60;74.12;100589.13;5043595;28;20081;-69
2021/10/31 08:40:54;;;;;;;0.50;0.50;;;;;;;6.85;73.25;100577.59;5029207;28;20425;-69
2021/10/31 08:43:21;;;;;;;0.50;0.50;;;;;;;6.47;73.68;100579.22;5032732;28;20082;-71
2021/10/31 08:45:47;;;;;;;0.50;0.50;;;;;;;6.44;73.92;100587.47;5033088;28;20096;-72
2021/10/31 08:48:14;;;;;;;0.40;0.40;;;;;;;6.41;74.40;100585.00;5052356;28;20075;-72
2021/10/31 08:50:40;;;;;;;0.50;0.50;;;;;;;6.53;73.67;100584.16;5035547;28;20080;-72
2021/10/31 08:53:10;;;;;;;0.50;0.50;;;;;;;6.51;73.70;100586.09;5051640;28;20075;-73
2021/10/31 08:55:39;;;;;;;0.50;0.50;;;;;;;6.31;73.61;100573.13;5025489;28;20390;-71
2021/10/31 08:58:06;;;;;;;0.55;0.55;;;;;;;6.61;73.82;100580.09;5043218;28;20514;-74
2021/10/31 09:00:32;;;;;;;0.50;0.50;;;;;;;6.38;73.74;100569.06;5015506;28;20495;-73
2021/10/31 09:02:59;;;;;;;0.50;0.50;;;;;;;6.50;74.31;100573.63;5025022;28;20048;-71
2021/10/31 09:05:27;;;;;;;1.90;1.90;;;;;;;8.08;69.13;100572.44;5065526;28;20049;-72
2021/10/31 09:07:52;;;;;;;0.93;0.93;;;;;;;8.36;66.87;100571.28;5046314;28;20056;-72
2021/10/31 09:10:18;;;;;;;1.13;1.13;;;;;;;8.74;65.18;100565.72;5020280;28;20584;-71
2021/10/31 09:12:44;;;;;;;0.68;0.68;;;;;;;8.92;64.09;100574.22;5038044;28;20045;-72
2021/10/31 09:15:10;;;;;;;0.52;0.52;;;;;;;8.89;64.38;100561.84;5047942;28;20435;-72
2021/10/31 09:17:36;;;;;;;0.60;0.60;;;;;;;8.30;65.79;100564.53;5017475;28;20457;-72
2021/10/31 09:20:03;;;;;;;1.63;1.63;;;;;;;9.59;62.48;100560.00;5047874;28;20140;-72
2021/10/31 09:22:31;;;;;;;1.70;1.70;;;;;;;10.14;59.94;100556.38;5049957;28;20466;-72
2021/10/31 09:24:58;;;;;;;0.50;0.50;;;;;;;10.60;58.10;100551.72;5034800;28;20053;-72
2021/10/31 09:27:24;;;;;;;0.60;0.60;;;;;;;11.06;56.68;100547.78;5037386;28;20703;-72
2021/10/31 09:29:50;;;;;;;0.60;0.60;;;;;;;11.14;57.21;100548.00;5017271;28;20048;-74
2021/10/31 09:32:15;;;;;;;1.30;1.30;;;;;;;13.42;50.67;100554.31;5052663;28;20056;-72
2021/10/31 09:34:43;;;;;;;1.30;1.30;;;;;;;14.41;47.34;100550.97;5058403;28;20126;-75
2021/10/31 09:37:09;;;;;;;1.20;1.20;;;;;;;15.31;45.39;100555.34;5025789;28;20148;-72
2021/10/31 09:39:36;;;;;;;1.20;1.20;;;;;;;16.08;43.37;100552.72;5040851;28;20052;-72
2021/10/31 09:42:02;;;;;;;1.15;1.15;;;;;;;16.30;42.71;100551.25;5038693;28;20064;-73
2021/10/31 09:44:38;;;;;;;0.40;0.40;;;;;;;16.01;42.47;100559.84;5042548;28;20505;-73
2021/10/31 09:47:05;;;;;;;0.30;0.30;;;;;;;14.39;45.68;100547.53;5042281;28;20057;-72
2021/10/31 09:49:30;;;;;;;0.40;0.40;;;;;;;12.90;48.89;100558.34;5041817;28;20048;-73
2021/10/31 09:51:56;;;;;;;1.20;1.20;;;;;;;11.09;54.35;100558.38;5040713;28;20118;-73
2021/10/31 09:54:22;;;;;;;0.40;0.40;;;;;;;10.66;55.46;100555.75;5052564;28;20053;-72
2021/10/31 09:56:48;;;;;;;0.80;0.80;;;;;;;11.06;55.43;100558.63;5038023;28;20061;-71
2021/10/31 09:59:17;;;;;;;0.70;0.70;;;;;;;11.75;53.11;100550.72;5036098;28;20052;-71
2021/10/31 10:04:27;;;;;;;1.30;1.30;;;;;;;11.23;53.93;100543.66;5049181;28;20052;-71
2021/10/31 10:06:55;;;;;;;1.20;1.20;;;;;;;11.73;53.23;100541.88;5052007;28;20140;-71
2021/10/31 10:09:21;;;;;;;1.10;1.10;;;;;;;12.26;51.46;100538.06;5019001;28;20053;-72
2021/10/31 10:11:48;;;;;;;1.00;1.00;;;;;;;13.32;49.09;100545.31;5019734;28;20052;-71
2021/10/31 10:14:25;;;;;;;1.00;1.00;;;;;;;13.48;48.31;100541.97;5036725;28;20045;-71
2021/10/31 10:17:03;;;;;;;1.02;1.02;;;;;;;12.73;50.13;100541.81;5070225;28;20089;-72
2021/10/31 10:19:46;;;;;;;1.00;1.00;;;;;;;13.29;49.25;100531.19;5054443;28;20096;-71
2021/10/31 10:22:14;;;;;;;1.00;1.00;;;;;;;12.66;49.99;100529.81;5036268;28;20112;-72
2021/10/31 10:24:51;;;;;;;0.32;0.32;;;;;;;11.68;52.28;100535.16;5036672;28;20048;-71
2021/10/31 10:27:18;;;;;;;1.10;1.10;;;;;;;11.66;52.23;100524.44;5055184;28;20156;-72
2021/10/31 10:29:45;;;;;;;1.10;1.10;;;;;;;11.68;51.71;100530.59;5055076;28;20136;-75
2021/10/31 10:32:14;;;;;;;1.00;1.00;;;;;;;12.66;50.47;100537.94;5052730;28;20502;-71
2021/10/31 10:34:49;;;;;;;1.00;1.00;;;;;;;12.71;49.60;100534.81;5004009;28;20143;-71
2021/10/31 10:37:22;;;;;;;1.00;1.00;;;;;;;12.90;48.91;100520.34;5053629;28;20057;-71
2021/10/31 10:39:58;;;;;;;;;;;;;;;12.89;49.06;100518.66;5045443;28;20044;-71
2021/10/31 10:42:33;;;;;;;1.10;1.10;;;;;;;14.11;46.56;100523.06;5038912;28;20077;-73
2021/10/31 10:45:02;;;;;;;0.90;0.90;;;;;;;14.33;45.85;100515.50;5074015;28;20667;-71
2021/10/31 10:47:29;;;;;;;0.90;0.90;;;;;;;14.01;46.28;100494.25;5040566;28;20068;-71
2021/10/31 10:49:57;;;;;;;0.90;0.90;;;;;;;13.69;46.99;100501.84;5056192;28;20155;-71
2021/10/31 10:52:31;;;;;;;0.90;0.90;;;;;;;13.35;48.13;100492.59;5039581;28;20056;-71
2021/10/31 10:55:01;;;;;;;0.90;0.90;;;;;;;13.94;46.49;100483.13;5040658;28;20490;-71
2021/10/31 10:57:33;;;;;;;0.80;0.80;;;;;;;13.88;46.41;100484.59;5075767;28;20468;-73
2021/10/31 11:00:18;;;;;;;0.90;0.90;;;;;;;14.11;46.31;100487.72;5041002;28;20090;-71
2021/10/31 11:02:48;;;;;;;0.90;0.90;;;;;;;14.65;44.85;100487.78;5040758;28;20059;-71
2021/10/31 11:05:15;;;;;;;0.80;0.80;;;;;;;14.00;46.09;100477.06;5057845;28;20044;-72
2021/10/31 11:07:47;;;;;;;0.80;0.80;;;;;;;13.63;46.63;100480.72;5057189;28;20056;-72
2021/10/31 11:10:20;;;;;;;0.80;0.80;;;;;;;13.71;46.11;100486.28;5054433;28;20099;-72
2021/10/31 11:12:49;;;;;;;0.80;0.80;;;;;;;12.93;48.33;100471.22;5055838;28;20076;-71
2021/10/31 11:15:24;;;;;;;0.80;0.80;;;;;;;12.34;49.49;100458.72;5037160;28;20446;-71
2021/10/31 11:17:52;;;;;;;0.80;0.80;;;;;;;12.43;49.74;100463.28;5036854;28;20115;-71
2021/10/31 11:20:20;;;;;;;0.80;0.80;;;;;;;12.84;48.63;100461.25;5020222;28;20073;-70
2021/10/31 11:22:48;;;;;;;0.80;0.80;;;;;;;11.91;50.94;100468.94;5054559;28;20049;-72
2021/10/31 11:25:17;;;;;;;0.80;0.80;;;;;;;12.17;50.18;100458.41;5020140;28;20550;-71
2021/10/31 11:27:44;;;;;;;0.80;0.80;;;;;;;12.12;50.17;100458.00;5043816;28;20162;-71
2021/10/31 11:30:10;;;;;;;0.75;0.75;;;;;;;13.26;48.01;100446.28;5036856;28;20516;-72
2021/10/31 11:32:37;;;;;;;0.80;0.80;;;;;;;13.30;47.93;100446.00;5036893;28;20090;-72
2021/10/31 11:35:04;;;;;;;0.70;0.70;;;;;;;13.18;48.21;100438.00;5071423;28;20045;-71
2021/10/31 11:37:35;;;;;;;0.77;0.77;;;;;;;12.64;49.04;100453.13;5035546;28;20080;-71
2021/10/31 11:40:03;;;;;;;0.70;0.70;;;;;;;13.06;48.00;100455.47;5053596;28;20063;-71